Time;durP1;ratioP1;P1;durP2;ratioP2;P2;SDS_P1;SDS_P2;PMS_P1;PMS_P2;Temp;Humidity;BMP_temperature;BMP_pressure;BME280_temperature;BME280_humidity;BME280_pressure;Samples;Min_cycle;Max_cycle;Signal;HPM_P1;HPM_P2
2023/01/10 00:00:50;;;;;;;47.75;22.92;;;;;;;3.21;80.85;94492.00;4942644;28;20102;-74
2023/01/10 00:03:16;;;;;;;52.35;22.55;;;;;;;3.16;81.40;94478.88;4960483;28;20077;-74
2023/01/10 00:05:42;;;;;;;52.65;23.55;;;;;;;2.96;81.11;94429.66;4954028;28;20560;-73
2023/01/10 00:08:08;;;;;;;50.38;22.60;;;;;;;3.24;81.23;94486.31;4949654;28;20051;-74
2023/01/10 00:10:34;;;;;;;51.90;22.95;;;;;;;2.99;81.15;94443.03;4960536;28;20035;-74
2023/01/10 00:15:44;;;;;;;49.60;22.20;;;;;;;2.74;82.03;94405.28;4947264;28;20086;-74
2023/01/10 00:18:10;;;;;;;49.78;21.60;;;;;;;2.65;82.13;94444.19;4956589;28;20039;-74
2023/01/10 00:20:36;;;;;;;44.92;20.13;;;;;;;2.69;82.11;94425.13;4943729;28;20039;-74
2023/01/10 00:23:02;;;;;;;48.47;21.67;;;;;;;2.91;82.28;94453.13;4941008;28;20045;-73
2023/01/10 00:25:28;;;;;;;49.80;21.05;;;;;;;3.24;81.86;94481.84;4960217;28;20145;-73
2023/01/10 00:28:10;;;;;;;48.30;21.63;;;;;;;2.11;81.21;94296.69;4908183;28;20101;-74
2023/01/10 00:30:38;;;;;;;;;;;;;;;3.24;81.26;94486.31;4961016;28;20097;-74
2023/01/10 00:33:04;;;;;;;47.70;20.27;;;;;;;2.67;81.57;94366.97;4954316;28;20722;-73
2023/01/10 00:35:29;;;;;;;50.90;21.38;;;;;;;3.06;81.20;94475.06;4947955;28;20101;-74
2023/01/10 00:38:00;;;;;;;46.83;19.95;;;;;;;2.73;81.78;94370.47;4960008;28;20026;-73
2023/01/10 00:40:25;;;;;;;50.83;21.67;;;;;;;3.17;81.15;94476.00;4959895;28;20045;-73
2023/01/10 00:45:34;;;;;;;45.50;20.77;;;;;;;2.93;81.65;94417.81;4960256;28;20049;-73
2023/01/10 00:48:00;;;;;;;47.17;21.35;;;;;;;2.31;82.22;94310.00;4960637;28;20030;-74
2023/01/10 00:50:25;;;;;;;43.95;19.10;;;;;;;2.50;82.20;94370.69;4942107;28;20470;-74
2023/01/10 00:52:51;;;;;;;43.97;19.48;;;;;;;3.05;82.01;94400.13;4923035;28;20042;-73
2023/01/10 00:55:16;;;;;;;42.08;18.98;;;;;;;3.01;82.50;94448.03;4959965;28;20256;-74
2023/01/10 00:57:42;;;;;;;40.13;18.98;;;;;;;2.99;81.97;94460.59;4942230;28;20031;-74
2023/01/10 01:00:08;;;;;;;40.35;20.25;;;;;;;3.06;82.31;94438.41;4960199;28;20042;-74
2023/01/10 01:02:35;;;;;;;42.22;19.45;;;;;;;2.69;81.90;94385.84;4956455;28;20042;-73
2023/01/10 01:05:00;;;;;;;44.03;20.73;;;;;;;1.87;81.64;94255.06;4940409;29;20043;-73
2023/01/10 01:07:25;;;;;;;39.78;20.55;;;;;;;2.97;82.28;94389.34;4929342;28;20510;-74
2023/01/10 01:12:35;;;;;;;41.40;20.48;;;;;;;2.83;83.02;94395.94;4958936;28;20132;-74
2023/01/10 01:15:00;;;;;;;45.90;19.70;;;;;;;2.94;83.13;94410.75;4947141;28;20038;-73
2023/01/10 01:17:26;;;;;;;44.45;21.25;;;;;;;2.99;82.82;94424.69;4954280;28;20039;-73
2023/01/10 01:19:51;;;;;;;50.25;20.55;;;;;;;2.68;82.42;94342.38;4959823;28;20039;-73
2023/01/10 01:22:17;;;;;;;41.58;19.35;;;;;;;2.83;82.28;94369.75;4941577;28;20619;-74
2023/01/10 01:24:42;;;;;;;42.78;21.10;;;;;;;2.74;81.96;94351.09;4941273;28;20051;-73
2023/01/10 01:27:07;;;;;;;42.00;19.60;;;;;;;2.78;81.59;94361.88;4959672;28;20105;-74
2023/01/10 01:29:33;;;;;;;41.85;19.00;;;;;;;3.28;81.38;94427.91;4958926;28;20035;-75
2023/01/10 01:31:58;;;;;;;39.58;18.52;;;;;;;3.30;81.36;94459.91;4959670;28;20456;-73
2023/01/10 01:34:24;;;;;;;39.55;19.50;;;;;;;3.30;81.25;94431.06;4938457;28;20820;-73
2023/01/10 01:36:50;;;;;;;39.78;19.33;;;;;;;2.68;81.23;94373.78;4944689;28;20035;-74
2023/01/10 01:39:16;;;;;;;41.42;19.42;;;;;;;3.13;81.51;94411.25;4959136;28;20485;-74
2023/01/10 01:41:56;;;;;;;41.85;19.77;;;;;;;2.77;81.82;94405.59;4959113;28;20101;-74
2023/01/10 01:44:23;;;;;;;40.03;18.98;;;;;;;3.04;82.09;94376.84;4941318;28;20141;-73
2023/01/10 01:47:02;;;;;;;40.55;19.10;;;;;;;2.65;82.80;94408.34;4957741;28;20779;-73
2023/01/10 01:49:30;;;;;;;40.55;19.35;;;;;;;2.90;82.73;94392.13;4941233;28;20121;-74
2023/01/10 01:52:01;;;;;;;44.42;20.10;;;;;;;3.19;81.91;94439.09;4949344;28;20037;-74
2023/01/10 01:54:28;;;;;;;38.45;19.90;;;;;;;2.66;81.90;94314.88;4949384;28;20047;-74
2023/01/10 01:57:01;;;;;;;41.08;19.27;;;;;;;3.23;81.88;94422.63;4956483;28;20043;-74
2023/01/10 01:59:35;;;;;;;43.08;19.48;;;;;;;3.19;82.10;94370.97;4934618;28;20038;-74
2023/01/10 02:02:12;;;;;;;42.10;19.25;;;;;;;3.35;81.16;94391.84;4951597;28;20590;-74
2023/01/10 02:04:51;;;;;;;47.45;20.77;;;;;;;3.52;81.23;94398.78;4950062;28;20047;-74
2023/01/10 02:07:18;;;;;;;45.55;18.88;;;;;;;3.20;80.64;94313.06;4958895;28;20122;-75
2023/01/10 02:09:55;;;;;;;42.20;19.05;;;;;;;3.54;80.35;94370.50;4944692;28;20518;-74
2023/01/10 02:12:21;;;;;;;41.15;18.10;;;;;;;2.88;80.29;94247.56;4939694;28;20038;-73
2023/01/10 02:14:49;;;;;;;40.95;19.27;;;;;;;2.79;80.71;94298.78;4959083;28;20039;-74
2023/01/10 02:17:15;;;;;;;38.20;18.73;;;;;;;2.69;80.18;94252.34;4958856;28;20035;-75
2023/01/10 02:19:49;;;;;;;36.58;17.05;;;;;;;3.46;80.86;94397.94;4958487;28;20145;-74
2023/01/10 02:22:26;;;;;;;36.70;17.17;;;;;;;3.63;80.09;94376.88;4953506;28;20097;-74
2023/01/10 02:24:51;;;;;;;37.40;18.73;;;;;;;3.49;80.58;94355.53;4938932;28;20233;-74
2023/01/10 02:27:28;;;;;;;39.33;19.05;;;;;;;2.94;80.14;94261.47;4939019;29;20047;-74
2023/01/10 02:30:04;;;;;;;35.00;16.52;;;;;;;3.51;80.92;94355.28;4939536;28;20086;-73
2023/01/10 02:32:43;;;;;;;36.30;18.08;;;;;;;3.49;80.92;94351.06;4939440;28;20802;-73
2023/01/10 02:35:32;;;;;;;37.70;17.63;;;;;;;3.54;81.30;94360.81;4939359;28;20714;-74
2023/01/10 02:38:11;;;;;;;39.03;18.73;;;;;;;3.39;81.03;94303.00;4938501;28;20047;-74
2023/01/10 02:41:06;;;;;;;44.47;20.48;;;;;;;3.56;80.91;94357.94;4937962;28;20053;-74
2023/01/10 02:43:44;;;;;;;48.95;24.55;;;;;;;3.44;80.18;94314.31;4934447;29;20067;-74
2023/01/10 02:46:27;;;;;;;45.22;22.27;;;;;;;3.23;80.36;94296.84;4939622;28;20104;-74
2023/01/10 02:48:53;;;;;;;39.75;19.48;;;;;;;3.47;80.95;94340.03;4942727;29;20051;-74
2023/01/10 02:51:32;;;;;;;37.00;18.02;;;;;;;3.62;80.44;94357.72;4943450;28;20039;-74
2023/01/10 02:54:17;;;;;;;38.88;18.33;;;;;;;3.69;80.34;94360.94;4942616;29;20073;-74
2023/01/10 02:56:45;;;;;;;33.35;16.30;;;;;;;3.77;80.64;94360.47;4943542;29;20039;-74
2023/01/10 02:59:34;;;;;;;35.92;16.42;;;;;;;3.72;79.78;94349.16;4943564;29;20050;-75
2023/01/10 03:02:23;;;;;;;37.90;17.90;;;;;;;3.75;79.61;94356.50;4939627;29;20085;-76
2023/01/10 03:05:13;;;;;;;34.92;18.08;;;;;;;3.75;79.51;94364.38;4941353;29;20966;-76
2023/01/10 03:07:45;;;;;;;36.13;17.08;;;;;;;3.62;79.72;94349.06;4924164;29;20085;-76
2023/01/10 03:10:17;;;;;;;32.30;16.55;;;;;;;3.69;79.49;94368.00;4941883;28;20039;-75
2023/01/10 03:12:50;;;;;;;33.97;17.33;;;;;;;3.10;79.39;94278.91;4941788;29;20811;-75
2023/01/10 03:15:19;;;;;;;35.83;17.30;;;;;;;3.74;79.43;94378.53;4941563;28;20557;-75
2023/01/10 03:17:49;;;;;;;33.47;16.65;;;;;;;3.82;78.95;94380.69;4941618;29;20546;-76
2023/01/10 03:20:16;;;;;;;33.80;16.38;;;;;;;3.57;78.40;94331.47;4941304;28;20927;-76
2023/01/10 03:22:43;;;;;;;31.65;16.70;;;;;;;3.76;78.14;94345.78;4941325;28;20041;-75
2023/01/10 03:25:13;;;;;;;31.60;16.38;;;;;;;3.47;78.22;94302.53;4936731;29;20067;-76
2023/01/10 03:27:50;;;;;;;33.92;17.42;;;;;;;3.63;78.25;94342.78;4939540;29;20569;-76
2023/01/10 03:30:38;;;;;;;31.70;16.70;;;;;;;3.95;78.34;94395.22;4941540;28;20038;-76
2023/01/10 03:33:04;;;;;;;31.05;16.10;;;;;;;4.05;77.84;94384.78;4927552;28;20043;-76
2023/01/10 03:35:40;;;;;;;36.72;17.50;;;;;;;4.11;77.69;94378.56;4941396;28;20043;-76
2023/01/10 03:38:12;;;;;;;33.30;15.68;;;;;;;4.12;77.55;94374.91;4939601;29;20043;-76
2023/01/10 03:41:16;;;;;;;37.30;17.73;;;;;;;4.12;77.52;94380.91;4939429;28;20039;-76
2023/01/10 03:46:55;;;;;;;33.75;16.33;;;;;;;4.20;77.18;94375.19;4940800;29;20042;-75
2023/01/10 03:49:24;;;;;;;32.97;16.80;;;;;;;4.12;77.33;94367.78;4941072;28;20166;-76
2023/01/10 03:51:51;;;;;;;31.77;16.67;;;;;;;4.13;77.36;94379.06;4940665;28;20088;-76
2023/01/10 03:54:16;;;;;;;29.70;15.70;;;;;;;3.83;77.27;94311.44;4941154;29;20478;-76
2023/01/10 03:56:44;;;;;;;32.70;17.58;;;;;;;3.78;77.10;94282.59;4940743;28;20128;-76
2023/01/10 03:59:10;;;;;;;37.35;19.10;;;;;;;3.92;77.89;94341.44;4922610;29;20062;-76
2023/01/10 04:01:35;;;;;;;37.40;18.90;;;;;;;3.64;77.48;94256.00;4940648;29;20513;-76
2023/01/10 04:04:01;;;;;;;36.03;19.20;;;;;;;3.90;78.01;94327.75;4940931;29;20097;-76
2023/01/10 04:06:26;;;;;;;37.47;19.00;;;;;;;3.79;78.92;94308.56;4940139;29;20046;-76
2023/01/10 04:08:51;;;;;;;39.72;18.77;;;;;;;3.30;78.64;94210.16;4922655;29;20047;-76
2023/01/10 04:11:17;;;;;;;30.17;16.75;;;;;;;3.44;78.63;94224.41;4940079;29;20110;-76
2023/01/10 04:13:42;;;;;;;31.55;16.30;;;;;;;3.80;78.60;94273.44;4940233;29;20565;-75
2023/01/10 04:16:08;;;;;;;31.88;16.75;;;;;;;3.43;79.12;94228.09;4940319;29;20070;-76
2023/01/10 04:18:33;;;;;;;29.67;15.73;;;;;;;3.51;78.53;94240.69;4926340;29;20088;-76
2023/01/10 04:20:59;;;;;;;27.33;15.38;;;;;;;3.55;78.35;94238.38;4940470;29;20035;-76
2023/01/10 04:23:24;;;;;;;29.20;15.75;;;;;;;3.12;78.54;94189.59;4939841;29;20094;-76
2023/01/10 04:25:50;;;;;;;30.50;15.80;;;;;;;3.69;78.65;94284.09;4951546;28;20189;-76
2023/01/10 04:28:15;;;;;;;31.00;16.73;;;;;;;3.35;78.47;94276.53;4959383;28;20042;-77
2023/01/10 04:30:40;;;;;;;28.83;15.80;;;;;;;3.63;79.07;94361.13;4959516;28;20112;-76
2023/01/10 04:33:06;;;;;;;27.77;14.98;;;;;;;3.51;79.54;94360.53;4941866;28;20035;-73
2023/01/10 04:35:31;;;;;;;31.10;15.57;;;;;;;3.38;78.94;94315.31;4957680;28;20043;-77
2023/01/10 04:37:56;;;;;;;33.60;16.48;;;;;;;3.57;78.93;94333.31;4943924;28;20071;-77
2023/01/10 04:40:22;;;;;;;30.48;15.95;;;;;;;3.86;78.59;94395.69;4938323;28;20046;-76
2023/01/10 04:42:47;;;;;;;30.42;15.52;;;;;;;3.77;78.43;94355.22;4941780;28;20589;-75
2023/01/10 04:45:16;;;;;;;36.13;16.45;;;;;;;3.41;78.06;94319.28;4940858;28;20043;-75
2023/01/10 04:47:42;;;;;;;34.17;16.52;;;;;;;3.86;78.19;94353.72;4940723;28;20097;-75
2023/01/10 04:50:08;;;;;;;28.05;15.68;;;;;;;3.56;77.96;94293.19;4956331;28;20067;-76
2023/01/10 04:52:33;;;;;;;39.15;17.25;;;;;;;4.05;77.91;94348.06;4942917;28;20951;-75
2023/01/10 04:54:59;;;;;;;32.63;16.70;;;;;;;3.82;78.11;94308.03;4958525;28;20042;-76
2023/01/10 04:57:24;;;;;;;31.48;16.38;;;;;;;4.01;77.72;94331.25;4941196;28;20038;-75
2023/01/10 04:59:49;;;;;;;34.28;16.20;;;;;;;3.39;77.42;94224.38;4956713;28;20536;-75
2023/01/10 05:02:15;;;;;;;28.60;15.70;;;;;;;3.69;77.60;94286.72;4957509;28;20201;-76
2023/01/10 05:04:40;;;;;;;32.28;16.52;;;;;;;3.95;77.93;94332.28;4948781;28;20047;-76
2023/01/10 05:07:06;;;;;;;33.25;16.70;;;;;;;4.18;77.49;94342.38;4953339;28;20484;-75
2023/01/10 05:09:31;;;;;;;34.33;16.25;;;;;;;4.06;77.41;94312.91;4941204;28;20839;-75
2023/01/10 05:11:56;;;;;;;30.25;16.42;;;;;;;4.14;77.32;94323.72;4919050;29;20038;-75
2023/01/10 05:14:22;;;;;;;31.33;15.30;;;;;;;3.41;77.91;94209.19;4920450;28;20779;-76
2023/01/10 05:16:47;;;;;;;33.17;16.27;;;;;;;3.31;77.73;94203.88;4922033;29;20078;-76
2023/01/10 05:19:13;;;;;;;32.22;15.50;;;;;;;4.02;77.73;94322.34;4941623;28;20057;-76
2023/01/10 05:21:38;;;;;;;35.08;15.73;;;;;;;4.13;77.85;94305.59;4916753;29;20786;-76
2023/01/10 05:24:08;;;;;;;35.70;17.30;;;;;;;3.11;77.43;94154.75;4936173;28;20058;-76
2023/01/10 05:26:33;;;;;;;35.58;16.10;;;;;;;3.61;77.34;94222.41;4913003;28;20529;-76
2023/01/10 05:28:58;;;;;;;30.67;15.93;;;;;;;3.47;77.33;94200.31;4903381;29;20057;-76
2023/01/10 05:31:25;;;;;;;35.30;17.67;;;;;;;4.11;77.32;94282.25;4902241;29;20059;-76
2023/01/10 05:33:52;;;;;;;33.13;16.80;;;;;;;4.10;77.00;94274.63;4910075;29;20036;-76
2023/01/10 05:36:18;;;;;;;34.78;18.33;;;;;;;4.39;76.73;94319.66;4892450;29;20044;-76
2023/01/10 05:38:44;;;;;;;36.42;18.15;;;;;;;3.93;76.32;94261.69;4894882;29;20066;-76
2023/01/10 05:41:09;;;;;;;37.90;18.33;;;;;;;4.36;76.76;94318.31;4895384;29;20039;-76
2023/01/10 05:43:35;;;;;;;39.22;20.05;;;;;;;3.99;77.42;94305.25;4907468;29;20047;-76
2023/01/10 05:46:00;;;;;;;41.53;19.23;;;;;;;3.88;77.19;94266.91;4911032;29;20139;-76
2023/01/10 05:48:26;;;;;;;41.05;19.38;;;;;;;4.31;77.29;94341.94;4912306;29;20419;-76
2023/01/10 05:50:51;;;;;;;37.83;19.60;;;;;;;4.25;76.64;94328.00;4913444;29;20042;-76
2023/01/10 05:53:18;;;;;;;34.20;18.45;;;;;;;4.12;76.56;94296.19;4913408;29;20047;-77
2023/01/10 05:55:50;;;;;;;32.95;17.48;;;;;;;4.30;76.52;94323.81;4894593;29;20674;-77
2023/01/10 05:58:16;;;;;;;31.55;16.90;;;;;;;4.06;76.39;94269.09;4908590;29;20806;-77
2023/01/10 06:00:41;;;;;;;33.08;16.13;;;;;;;4.32;76.55;94291.03;4911968;29;20046;-77
2023/01/10 06:03:07;;;;;;;39.00;18.90;;;;;;;4.37;76.73;94317.28;4910412;29;20844;-77
2023/01/10 06:05:32;;;;;;;34.63;16.95;;;;;;;3.66;76.60;94192.84;4876631;29;20059;-77
2023/01/10 06:07:58;;;;;;;34.38;16.88;;;;;;;4.24;76.34;94288.88;4886616;29;20773;-77
2023/01/10 06:10:23;;;;;;;37.15;15.90;;;;;;;4.57;75.95;94332.34;4907300;29;20770;-77
2023/01/10 06:12:49;;;;;;;31.48;16.30;;;;;;;3.11;76.14;94123.31;4910147;29;20055;-78
2023/01/10 06:15:15;;;;;;;36.85;16.67;;;;;;;3.85;76.10;94249.06;4903185;29;20051;-79
2023/01/10 06:17:43;;;;;;;32.80;16.40;;;;;;;4.32;76.06;94330.38;4901352;29;20036;-81
2023/01/10 06:20:09;;;;;;;32.83;17.10;;;;;;;3.94;75.83;94244.13;4908165;29;20047;-79
2023/01/10 06:22:35;;;;;;;33.35;18.20;;;;;;;3.17;75.99;94137.22;4890810;29;20031;-78
2023/01/10 06:25:00;;;;;;;34.40;18.05;;;;;;;3.81;77.09;94253.25;4918598;28;20074;-78
2023/01/10 06:27:26;;;;;;;39.08;18.38;;;;;;;4.24;76.75;94286.25;4915305;29;20808;-77
2023/01/10 06:29:51;;;;;;;40.20;18.55;;;;;;;4.47;76.60;94322.59;4919528;29;20058;-78
2023/01/10 06:32:16;;;;;;;48.15;17.95;;;;;;;4.07;76.46;94269.88;4913434;29;20153;-77
2023/01/10 06:34:42;;;;;;;33.20;16.75;;;;;;;3.99;76.94;94265.13;4928081;28;20053;-77
2023/01/10 06:37:07;;;;;;;47.50;22.77;;;;;;;3.69;77.22;94211.47;4921766;28;20135;-77
2023/01/10 06:39:32;;;;;;;45.60;22.80;;;;;;;4.11;76.72;94253.41;4928857;28;20038;-78
2023/01/10 06:41:59;;;;;;;37.33;19.15;;;;;;;4.47;76.79;94319.16;4929708;28;20041;-78
2023/01/10 06:44:25;;;;;;;41.35;20.98;;;;;;;4.46;77.10;94304.47;4918114;28;20049;-78
2023/01/10 06:46:51;;;;;;;42.28;20.40;;;;;;;4.09;76.69;94231.88;4915547;29;20039;-78
2023/01/10 06:49:16;;;;;;;39.33;18.48;;;;;;;4.13;76.58;94237.38;4931061;28;20486;-77
2023/01/10 06:51:42;;;;;;;31.80;16.55;;;;;;;4.37;77.08;94277.91;4918526;29;20158;-78
2023/01/10 06:54:07;;;;;;;39.40;18.95;;;;;;;4.54;76.55;94286.38;4929569;28;20031;-77
2023/01/10 06:56:32;;;;;;;31.88;16.58;;;;;;;4.85;76.60;94331.94;4931056;28;20062;-78
2023/01/10 06:58:58;;;;;;;37.20;19.05;;;;;;;4.65;76.62;94297.72;4917787;28;20082;-78
2023/01/10 07:01:23;;;;;;;40.85;20.48;;;;;;;4.46;77.28;94267.72;4932234;28;20179;-76
2023/01/10 07:03:49;;;;;;;44.63;20.48;;;;;;;4.34;77.33;94243.53;4918567;28;20049;-77
2023/01/10 07:06:15;;;;;;;49.60;22.23;;;;;;;4.78;78.94;94317.47;4908149;28;20054;-77
2023/01/10 07:08:44;;;;;;;51.05;22.98;;;;;;;4.74;80.42;94305.88;4913899;28;20050;-80
2023/01/10 07:11:10;;;;;;;45.55;22.67;;;;;;;4.83;80.31;94306.97;4928671;28;20054;-79
2023/01/10 07:13:36;;;;;;;49.75;23.52;;;;;;;4.84;79.94;94309.31;4917490;28;21092;-78
2023/01/10 07:16:10;;;;;;;47.63;24.35;;;;;;;4.90;79.89;94310.91;4913370;29;20042;-78
2023/01/10 07:18:38;;;;;;;43.45;22.10;;;;;;;4.87;81.13;94316.72;4915454;29;20062;-77
2023/01/10 07:21:04;;;;;;;45.90;21.23;;;;;;;4.91;81.12;94303.81;4923471;28;20857;-78
2023/01/10 07:23:30;;;;;;;44.03;22.90;;;;;;;4.58;81.92;94269.06;4929952;28;20054;-78
2023/01/10 07:26:04;;;;;;;45.83;22.75;;;;;;;3.84;81.81;94142.56;4929161;28;20059;-78
2023/01/10 07:28:30;;;;;;;45.38;22.58;;;;;;;4.26;82.08;94205.44;4926058;28;20035;-78
2023/01/10 07:31:00;;;;;;;48.97;25.15;;;;;;;4.78;82.52;94285.94;4928557;28;20105;-79
2023/01/10 07:33:26;;;;;;;48.70;23.10;;;;;;;4.89;82.95;94292.78;4930123;28;20031;-78
2023/01/10 07:35:52;;;;;;;51.75;24.10;;;;;;;4.74;83.59;94285.66;4927986;28;20821;-78
2023/01/10 07:38:18;;;;;;;55.65;22.27;;;;;;;4.83;84.10;94296.44;4925316;28;20103;-77
2023/01/10 07:40:43;;;;;;;50.63;22.80;;;;;;;3.82;83.84;94123.66;4920729;29;20622;-78
2023/01/10 07:43:08;;;;;;;51.30;24.20;;;;;;;4.61;83.85;94252.78;4927007;28;20050;-78
2023/01/10 07:45:34;;;;;;;50.53;24.55;;;;;;;4.59;84.16;94259.34;4928840;28;20070;-78
2023/01/10 07:48:03;;;;;;;51.83;24.25;;;;;;;4.50;84.35;94232.03;4920162;28;20035;-80
2023/01/10 07:50:32;;;;;;;47.58;23.60;;;;;;;4.37;84.70;94212.28;4911482;29;20039;-79
2023/01/10 07:53:02;;;;;;;52.00;24.42;;;;;;;4.75;85.60;94291.69;4922237;28;20145;-80
2023/01/10 07:55:29;;;;;;;55.58;25.88;;;;;;;4.32;85.89;94232.47;4910706;28;20043;-78
2023/01/10 07:57:54;;;;;;;59.47;26.20;;;;;;;4.34;86.04;94231.19;4930871;28;20046;-79
2023/01/10 08:00:20;;;;;;;56.35;27.33;;;;;;;4.80;85.38;94286.47;4927414;28;20039;-78
2023/01/10 08:02:46;;;;;;;60.40;28.17;;;;;;;4.24;86.21;94218.81;4930520;28;20560;-77
2023/01/10 08:05:12;;;;;;;64.00;29.75;;;;;;;4.72;86.85;94287.75;4916020;28;20039;-82
2023/01/10 08:07:37;;;;;;;60.78;31.00;;;;;;;4.53;86.38;94248.03;4912507;29;20748;-80
2023/01/10 08:10:04;;;;;;;65.22;31.70;;;;;;;4.84;86.36;94285.69;4904847;28;20063;-79
2023/01/10 08:12:31;;;;;;;67.72;33.53;;;;;;;4.49;86.56;94243.56;4918078;28;20045;-77
2023/01/10 08:14:57;;;;;;;71.75;31.98;;;;;;;4.68;87.10;94259.63;4922148;28;20070;-76
2023/01/10 08:17:22;;;;;;;70.68;33.38;;;;;;;4.86;86.40;94285.44;4926159;28;20105;-77
2023/01/10 08:19:48;;;;;;;69.57;31.45;;;;;;;4.75;86.69;94263.59;4922052;28;20078;-77
2023/01/10 08:22:13;;;;;;;56.85;28.67;;;;;;;4.43;86.53;94200.75;4927190;28;20440;-77
2023/01/10 08:24:39;;;;;;;59.22;27.10;;;;;;;4.57;86.35;94217.59;4923869;28;20077;-77
2023/01/10 08:27:04;;;;;;;57.03;27.90;;;;;;;4.18;86.37;94145.56;4912110;28;20045;-76
2023/01/10 08:29:30;;;;;;;53.83;26.00;;;;;;;4.95;86.37;94250.50;4910862;28;20113;-76
2023/01/10 08:31:56;;;;;;;60.88;27.48;;;;;;;4.82;86.03;94223.94;4931938;28;20474;-75
2023/01/10 08:34:21;;;;;;;54.58;27.00;;;;;;;5.09;85.84;94258.69;4934713;28;20075;-76
2023/01/10 08:36:51;;;;;;;52.67;25.90;;;;;;;5.09;85.86;94250.00;4915109;28;20406;-75
2023/01/10 08:39:17;;;;;;;54.35;25.63;;;;;;;4.73;86.15;94201.88;4934430;28;20030;-76
2023/01/10 08:41:42;;;;;;;50.47;24.48;;;;;;;4.74;86.12;94208.69;4928979;28;20043;-77
2023/01/10 08:44:10;;;;;;;50.67;24.13;;;;;;;4.46;86.36;94147.72;4940493;28;20073;-77
2023/01/10 08:46:37;;;;;;;53.72;25.05;;;;;;;4.88;86.54;94226.31;4906416;28;20457;-79
2023/01/10 08:49:02;;;;;;;60.22;27.52;;;;;;;4.42;86.58;94151.94;4931761;28;20070;-78
2023/01/10 08:51:28;;;;;;;57.13;28.25;;;;;;;5.05;86.58;94228.69;4916762;28;20061;-77
2023/01/10 08:53:53;;;;;;;79.05;37.28;;;;;;;4.82;86.40;94208.16;4920740;28;20893;-76
2023/01/10 08:56:19;;;;;;;80.57;38.10;;;;;;;4.95;86.97;94224.25;4908109;28;20073;-78
2023/01/10 08:58:44;;;;;;;76.90;38.22;;;;;;;4.36;86.89;94157.41;4912348;28;20725;-77
2023/01/10 09:01:10;;;;;;;65.50;31.77;;;;;;;4.98;87.18;94228.97;4927198;28;20039;-77
2023/01/10 09:03:36;;;;;;;75.90;33.83;;;;;;;4.38;86.69;94118.56;4929961;28;20810;-76
2023/01/10 09:06:01;;;;;;;69.13;33.88;;;;;;;5.09;86.72;94227.13;4913415;28;20050;-77
2023/01/10 09:08:27;;;;;;;73.20;33.92;;;;;;;4.89;86.99;94191.09;4936317;28;20031;-76
2023/01/10 09:10:53;;;;;;;80.55;38.33;;;;;;;5.12;86.13;94216.09;4924134;28;20042;-77
2023/01/10 09:13:19;;;;;;;80.15;35.83;;;;;;;4.89;86.55;94172.72;4933502;28;20043;-77
2023/01/10 09:15:44;;;;;;;69.15;33.83;;;;;;;4.38;86.91;94108.06;4936814;28;20046;-78
2023/01/10 09:18:11;;;;;;;66.95;32.78;;;;;;;5.14;86.94;94221.09;4935223;28;20035;-78
2023/01/10 09:20:39;;;;;;;72.70;36.67;;;;;;;5.15;86.78;94222.66;4930482;28;20046;-77
2023/01/10 09:23:08;;;;;;;69.72;34.70;;;;;;;4.60;86.69;94137.50;4935113;28;20039;-86
2023/01/10 09:25:34;;;;;;;73.50;33.10;;;;;;;4.83;87.10;94184.28;4931898;28;20135;-78
2023/01/10 09:28:01;;;;;;;73.00;32.45;;;;;;;5.19;86.73;94207.97;4898141;29;20058;-77
2023/01/10 09:30:27;;;;;;;76.13;32.05;;;;;;;4.59;86.08;94113.06;4907506;29;20043;-77
2023/01/10 09:32:54;;;;;;;66.20;28.45;;;;;;;4.88;86.11;94162.50;4904532;29;20573;-77
2023/01/10 09:35:21;;;;;;;72.03;29.50;;;;;;;4.93;86.64;94154.59;4908567;29;20219;-76
2023/01/10 09:37:48;;;;;;;60.83;28.02;;;;;;;5.10;85.63;94178.78;4918891;29;20914;-77
2023/01/10 09:40:18;;;;;;;63.63;30.13;;;;;;;5.29;85.86;94200.06;4910561;29;20043;-77
2023/01/10 09:43:14;;;;;;;62.45;32.47;;;;;;;4.88;85.64;94120.47;4904408;29;20185;-77
2023/01/10 09:45:50;;;;;;;73.07;33.95;;;;;;;5.32;86.08;94176.66;4908318;29;20146;-79
2023/01/10 09:48:25;;;;;;;68.50;32.83;;;;;;;5.36;85.64;94167.19;4915015;28;20067;-80
2023/01/10 09:51:17;;;;;;;68.25;32.40;;;;;;;5.38;85.68;94170.34;4885737;29;20519;-77
2023/01/10 09:53:44;;;;;;;67.10;33.22;;;;;;;4.88;85.82;94091.56;4909941;29;20031;-77
2023/01/10 09:56:13;;;;;;;68.50;34.10;;;;;;;5.13;85.83;94136.19;4895962;29;20992;-77
2023/01/10 09:58:40;;;;;;;63.13;32.03;;;;;;;5.40;85.26;94170.88;4912469;29;20749;-78
2023/01/10 10:01:18;;;;;;;79.97;38.67;;;;;;;5.39;86.09;94164.03;4901095;29;20784;-77
2023/01/10 10:04:35;;;;;;;81.75;38.17;;;;;;;5.35;86.32;94156.94;4909816;29;20142;-78
2023/01/10 10:07:03;;;;;;;83.88;40.10;;;;;;;5.02;85.80;94101.28;4907932;29;20162;-77
2023/01/10 10:09:31;;;;;;;75.57;37.70;;;;;;;5.45;85.26;94156.91;4894295;29;20046;-77
2023/01/10 10:12:09;;;;;;;76.55;37.92;;;;;;;5.38;85.14;94145.88;4912638;29;20865;-77
2023/01/10 10:14:41;;;;;;;73.75;35.53;;;;;;;5.40;85.88;94149.84;4911229;29;20063;-78
2023/01/10 10:17:42;;;;;;;82.32;40.22;;;;;;;4.80;86.83;94119.16;4906228;29;20050;-77
2023/01/10 10:20:31;;;;;;;94.22;45.38;;;;;;;4.68;87.70;94154.56;4898732;29;20526;-77
2023/01/10 10:23:03;;;;;;;103.50;46.95;;;;;;;4.59;88.22;94155.09;4913257;29;20273;-77
2023/01/10 10:25:41;;;;;;;;;;;;;;;4.46;88.83;94155.59;4915832;28;20419;-76
2023/01/10 10:28:30;;;;;;;107.35;52.50;;;;;;;4.32;89.76;94156.38;4925995;28;19926;-77
2023/01/10 10:31:31;;;;;;;118.85;58.55;;;;;;;4.42;89.47;94149.31;4928277;28;20035;-83
2023/01/10 10:34:07;;;;;;;145.87;69.00;;;;;;;4.30;89.45;94142.69;4919199;28;20094;-80
2023/01/10 10:36:36;;;;;;;152.05;75.50;;;;;;;4.30;90.19;94140.06;4921154;28;20960;-78
2023/01/10 10:39:03;;;;;;;149.70;75.38;;;;;;;3.91;89.83;94050.50;4923288;28;20134;-78
2023/01/10 10:41:37;;;;;;;150.00;73.47;;;;;;;4.32;90.16;94138.78;4903716;28;20210;-80
2023/01/10 10:44:26;;;;;;;131.98;65.93;;;;;;;4.32;89.95;94144.03;4931299;28;20043;-76
2023/01/10 10:46:52;;;;;;;135.23;64.57;;;;;;;3.34;90.14;93983.25;4912151;28;20910;-77
2023/01/10 10:49:32;;;;;;;141.63;63.78;;;;;;;3.80;89.99;94040.03;4919015;28;20462;-77
2023/01/10 10:52:02;;;;;;;115.93;54.75;;;;;;;3.96;90.27;94069.69;4937055;28;20884;-77
2023/01/10 10:54:28;;;;;;;113.90;53.40;;;;;;;4.37;91.30;94117.00;4930522;28;20122;-76
2023/01/10 10:56:55;;;;;;;115.43;53.97;;;;;;;4.12;91.64;94091.50;4933144;28;20088;-77
2023/01/10 10:59:20;;;;;;;118.55;52.35;;;;;;;3.17;91.51;93948.59;4939393;28;20034;-76
2023/01/10 11:01:48;;;;;;;110.50;51.63;;;;;;;4.33;91.71;94126.44;4912317;28;20038;-77
2023/01/10 11:04:18;;;;;;;103.35;49.35;;;;;;;3.52;91.38;94011.59;4917541;28;20042;-75
2023/01/10 11:06:47;;;;;;;100.18;47.53;;;;;;;3.91;92.12;94055.75;4924289;28;20062;-76
2023/01/10 11:09:18;;;;;;;103.40;48.55;;;;;;;4.28;91.98;94114.09;4933785;28;20035;-78
2023/01/10 11:11:45;;;;;;;106.75;47.35;;;;;;;4.39;92.78;94110.44;4944489;28;20031;-81
2023/01/10 11:14:12;;;;;;;104.38;48.20;;;;;;;4.27;92.65;94081.81;4929823;28;20039;-78
2023/01/10 11:16:40;;;;;;;115.88;47.78;;;;;;;4.13;92.28;94064.19;4927464;28;20911;-76
2023/01/10 11:19:19;;;;;;;109.35;47.67;;;;;;;4.24;92.86;94103.34;4923947;28;20652;-79
2023/01/10 11:21:52;;;;;;;92.30;42.85;;;;;;;4.27;93.12;94108.03;4935190;28;20035;-76
2023/01/10 11:24:29;;;;;;;96.22;41.83;;;;;;;3.41;93.36;93971.47;4922652;28;20421;-75
2023/01/10 11:26:58;;;;;;;84.68;39.67;;;;;;;4.34;93.48;94094.69;4928220;28;20055;-75
2023/01/10 11:29:42;;;;;;;90.40;40.97;;;;;;;3.88;93.49;94020.38;4919912;28;20133;-75
2023/01/10 11:32:14;;;;;;;91.47;41.30;;;;;;;3.91;93.76;94022.44;4914997;28;20039;-76
2023/01/10 11:34:41;;;;;;;98.50;40.28;;;;;;;4.08;93.46;94066.81;4920629;28;20039;-75
2023/01/10 11:37:16;;;;;;;95.43;41.75;;;;;;;4.40;94.07;94101.53;4918693;28;20407;-75
2023/01/10 11:39:42;;;;;;;99.10;43.40;;;;;;;4.37;93.32;94103.88;4922482;28;20427;-75
2023/01/10 11:42:23;;;;;;;89.88;41.60;;;;;;;4.26;93.54;94103.88;4919398;28;20038;-79
2023/01/10 11:44:48;;;;;;;93.45;43.55;;;;;;;3.79;93.65;94027.94;4924578;28;20035;-75